Time;durP1;ratioP1;P1;durP2;ratioP2;P2;SDS_P1;SDS_P2;PMS_P1;PMS_P2;Temp;Humidity;BMP_temperature;BMP_pressure;BME280_temperature;BME280_humidity;BME280_pressure;Samples;Min_cycle;Max_cycle;Signal;HPM_P1;HPM_P2
2023/09/02 07:01:26;;;;;;;0.50;0.50;;;20.30;99.90;24.70;101569.00;;;;6095377;22;1532010;-65
2023/09/02 07:04:00;;;;;;;0.40;0.40;;;20.60;99.90;24.50;101562.00;;;;6161660;23;20532;-65
2023/09/02 07:06:37;;;;;;;0.50;0.50;;;20.60;99.90;25.00;101569.00;;;;6136578;23;20186;-65
2023/09/02 07:09:38;;;;;;;0.50;0.50;;;20.80;99.90;24.60;101568.00;;;;6136419;23;20606;-65
2023/09/02 07:12:27;;;;;;;0.40;0.40;;;20.80;99.90;25.60;101583.00;;;;6136458;23;20187;-66
2023/09/02 07:14:56;;;;;;;1.08;1.08;;;21.20;99.90;26.00;101583.00;;;;6139286;23;20162;-66
2023/09/02 07:18:00;;;;;;;0.50;0.50;;;21.60;99.90;26.20;101582.00;;;;6136484;23;20584;-66
2023/09/02 07:20:44;;;;;;;0.55;0.55;;;21.80;99.90;25.30;101589.00;;;;6142241;23;20151;-66
2023/09/02 07:23:29;;;;;;;0.47;0.47;;;21.70;99.90;25.10;101583.00;;;;6187017;23;20177;-66
2023/09/02 07:26:19;;;;;;;0.50;0.50;;;21.30;99.90;25.20;101601.00;;;;6187358;23;20230;-66
2023/09/02 07:29:31;;;;;;;0.60;0.60;;;21.30;99.90;26.00;101621.00;;;;6136891;23;20217;-66
2023/09/02 07:36:13;;;;;;;0.55;0.55;;;21.50;99.90;26.00;101632.00;;;;6186846;23;20587;-66
2023/09/02 07:38:57;;;;;;;0.80;0.80;;;21.70;99.90;25.80;101607.00;;;;6136109;23;20155;-66
2023/09/02 07:41:40;;;;;;;0.60;0.60;;;21.60;99.90;26.40;101645.00;;;;6135843;23;20209;-66
2023/09/02 07:44:34;;;;;;;0.52;0.52;;;22.00;99.90;26.20;101640.00;;;;6136243;23;20167;-66
2023/09/02 07:47:21;;;;;;;0.47;0.47;;;22.00;99.90;26.50;101640.00;;;;6186485;23;20143;-67
2023/09/02 07:49:47;;;;;;;1.60;0.90;;;22.20;99.90;26.30;101639.00;;;;6135987;23;20159;-67
2023/09/02 07:52:25;;;;;;;0.50;0.50;;;22.20;99.90;26.30;101637.00;;;;6135569;23;20466;-67
2023/09/02 07:54:51;;;;;;;0.50;0.50;;;22.10;99.90;26.40;101645.00;;;;6160565;23;20139;-68
2023/09/02 07:57:17;;;;;;;0.52;0.52;;;22.10;99.90;25.90;101634.00;;;;6186894;23;20147;-66
2023/09/02 07:59:43;;;;;;;0.40;0.40;;;21.90;99.90;24.50;101623.00;;;;6160633;23;20198;-66
2023/09/02 08:02:11;;;;;;;0.50;0.50;;;21.50;99.90;25.10;101627.00;;;;6135643;23;20234;-66
2023/09/02 08:04:42;;;;;;;0.50;0.50;;;21.30;99.90;26.00;101646.00;;;;6160385;23;20145;-66
2023/09/02 08:07:08;;;;;;;0.50;0.50;;;21.60;99.90;25.60;101654.00;;;;6135509;23;20178;-66
2023/09/02 08:09:40;;;;;;;0.50;0.50;;;21.70;99.90;26.10;101661.00;;;;6136004;23;20161;-66
2023/09/02 08:12:12;;;;;;;0.47;0.47;;;21.70;99.90;26.40;101648.00;;;;6159918;23;20226;-66
2023/09/02 08:14:38;;;;;;;0.95;0.95;;;21.90;99.90;26.60;101653.00;;;;6160964;23;20139;-66
2023/09/02 08:17:09;;;;;;;0.95;0.95;;;22.20;99.90;24.10;101630.00;;;;6135747;23;20166;-66
2023/09/02 08:19:41;;;;;;;0.77;0.77;;;21.70;99.90;23.00;101624.00;;;;6135685;23;20197;-66
2023/09/02 08:22:18;;;;;;;0.35;0.35;;;20.70;99.90;22.80;101629.00;;;;6186224;23;20171;-66
2023/09/02 08:24:46;;;;;;;0.52;0.52;;;20.30;99.90;24.90;101637.00;;;;6135859;23;20155;-66
2023/09/02 08:27:17;;;;;;;0.30;0.30;;;20.80;99.90;24.80;101632.00;;;;6135980;23;20167;-65
2023/09/02 08:29:46;;;;;;;0.30;0.30;;;21.20;99.90;25.00;101633.00;;;;6136103;23;20590;-65
2023/09/02 08:32:15;;;;;;;0.30;0.30;;;21.40;99.90;26.50;101650.00;;;;6135375;23;20163;-66
2023/09/02 08:34:41;;;;;;;0.63;0.63;;;22.10;99.90;26.10;101650.00;;;;6135922;23;20151;-65
2023/09/02 08:37:12;;;;;;;2.28;1.42;;;22.30;99.90;26.40;101653.00;;;;6135064;23;20166;-65
2023/09/02 08:39:38;;;;;;;0.52;0.52;;;22.80;99.90;27.10;101659.00;;;;6186224;23;20143;-68
2023/09/02 08:42:10;;;;;;;0.20;0.20;;;23.00;99.90;26.60;101664.00;;;;6134963;23;20513;-68
2023/09/02 08:44:36;;;;;;;0.30;0.30;;;23.00;99.90;27.90;101671.00;;;;6159977;23;20190;-68
2023/09/02 08:47:08;;;;;;;0.20;0.20;;;23.60;99.90;29.20;101695.00;;;;6160054;23;20151;-68
2023/09/02 08:49:37;;;;;;;1.45;1.45;;;24.50;99.90;27.00;101687.00;;;;6135338;23;20159;-68
2023/09/02 08:52:05;;;;;;;0.10;0.10;;;24.20;99.90;28.50;101699.00;;;;6160338;23;20536;-69
2023/09/02 08:54:38;;;;;;;0.55;0.55;;;24.20;99.90;28.70;101705.00;;;;6160560;23;20143;-69
2023/09/02 08:57:05;;;;;;;0.10;0.10;;;24.60;99.90;29.30;101713.00;;;;6135525;23;20151;-69
2023/09/02 08:59:34;;;;;;;0.73;0.73;;;25.10;99.90;29.60;101713.00;;;;6189960;23;20156;-67
2023/09/02 09:02:03;;;;;;;0.10;0.10;;;25.50;99.90;29.60;101698.00;;;;6216412;23;20166;-65
2023/09/02 09:04:33;;;;;;;0.20;0.20;;;25.70;99.90;29.60;101682.00;;;;6190008;23;20138;-68
2023/09/02 09:07:06;;;;;;;0.65;0.65;;;25.80;99.90;30.10;101703.00;;;;6189881;23;20536;-68
2023/09/02 09:09:40;;;;;;;1.55;1.45;;;25.80;99.90;30.10;101740.00;;;;6164854;23;20181;-68
2023/09/02 09:12:14;;;;;;;0.10;0.10;;;26.30;99.90;30.90;101731.00;;;;6164313;23;20231;-68
2023/09/02 09:14:47;;;;;;;0.13;0.13;;;26.30;99.90;32.20;101768.00;;;;6164835;23;20241;-68
2023/09/02 09:17:14;;;;;;;0.10;0.10;;;27.00;99.90;32.50;101803.00;;;;6164616;23;20162;-68
2023/09/02 09:19:43;;;;;;;0.52;0.52;;;27.50;99.90;31.90;101815.00;;;;6164555;23;20154;-68
2023/09/02 09:22:10;;;;;;;0.10;0.10;;;27.30;99.90;31.80;101813.00;;;;6189166;23;20208;-68
2023/09/02 09:24:44;;;;;;;0.10;0.10;;;27.30;99.90;31.30;101784.00;;;;6189345;23;20178;-68
2023/09/02 09:27:11;;;;;;;0.50;0.50;;;26.80;99.90;32.80;101805.00;;;;6189810;23;20217;-68
2023/09/02 09:29:46;;;;;;;0.10;0.10;;;27.50;99.90;32.10;101830.00;;;;6164942;23;20535;-68
2023/09/02 09:32:14;;;;;;;0.93;0.93;;;27.60;99.90;32.00;101826.00;;;;6189298;23;20563;-68
2023/09/02 09:34:51;;;;;;;0.40;0.40;;;27.40;99.90;31.90;101802.00;;;;6164425;23;20150;-68
2023/09/02 09:37:18;;;;;;;0.10;0.10;;;27.40;99.90;31.60;101822.00;;;;6189405;23;20145;-68
2023/09/02 09:39:51;;;;;;;0.15;0.15;;;27.30;99.90;32.00;101835.00;;;;6189551;23;20143;-68
2023/09/02 09:42:37;;;;;;;1.17;1.17;;;27.30;99.90;27.40;101716.00;;;;6189417;23;20182;-68
2023/09/02 09:45:06;;;;;;;0.10;0.10;;;25.50;99.90;29.30;101746.00;;;;6190178;23;20510;-67
2023/09/02 09:47:41;;;;;;;0.10;0.10;;;25.20;99.90;28.80;101780.00;;;;6189008;23;20161;-68
2023/09/02 09:50:17;;;;;;;0.17;0.17;;;25.50;99.90;29.40;101770.00;;;;6189564;23;20179;-68
2023/09/02 09:53:00;;;;;;;0.60;0.60;;;25.30;99.90;27.50;101760.00;;;;6189571;23;20147;-68
2023/09/02 09:55:33;;;;;;;0.10;0.10;;;24.90;99.90;28.90;101787.00;;;;6164533;23;20166;-68
2023/09/02 09:57:59;;;;;;;0.38;0.38;;;24.80;99.90;29.60;101809.00;;;;6189182;23;20139;-68
2023/09/02 10:00:37;;;;;;;1.10;1.05;;;25.20;99.90;27.10;101774.00;;;;6188735;23;20202;-68
2023/09/02 10:03:03;;;;;;;0.68;0.68;;;24.70;99.90;27.90;101778.00;;;;6188984;23;20205;-68
2023/09/02 10:05:35;;;;;;;2.42;2.22;;;24.50;99.90;28.80;101790.00;;;;6164173;23;20618;-68
2023/09/02 10:08:08;;;;;;;2.40;2.13;;;24.70;99.90;27.90;101783.00;;;;6189107;23;20147;-68
2023/09/02 10:10:45;;;;;;;2.75;2.45;;;25.00;99.90;27.20;101741.00;;;;6189243;23;20158;-68
2023/09/02 10:13:11;;;;;;;1.65;1.23;;;24.50;99.90;28.50;101783.00;;;;6215795;23;20229;-67
2023/09/02 10:15:49;;;;;;;2.58;2.28;;;24.70;99.90;28.70;101792.00;;;;6188772;23;20151;-68
2023/09/02 10:18:17;;;;;;;0.10;0.10;;;25.10;99.90;29.60;101791.00;;;;6188866;23;20144;-68
2023/09/02 10:20:49;;;;;;;0.50;0.50;;;25.50;99.90;31.50;101818.00;;;;6188797;23;20142;-68
2023/09/02 10:33:43;;;;;;;3.00;2.80;;;25.60;99.90;28.90;101803.00;;;;5070140;28;20987;-66
2023/09/02 10:36:29;;;;;;;6.60;4.55;;;25.70;99.90;29.00;101808.00;;;;5032121;28;20305;-69
2023/09/02 10:39:01;;;;;;;3.08;2.88;;;25.80;99.90;28.90;101800.00;;;;5049471;28;20185;-69
2023/09/02 10:41:38;;;;;;;1.50;1.13;;;25.40;99.90;28.70;101804.00;;;;5048780;28;20244;-69
2023/09/02 10:44:05;;;;;;;1.50;1.35;;;25.40;99.90;27.60;101786.00;;;;5032530;28;20208;-69
2023/09/02 10:46:38;;;;;;;1.58;1.58;;;24.80;99.90;28.10;101791.00;;;;5049723;28;20210;-69
2023/09/02 10:49:06;;;;;;;5.20;4.70;;;24.80;99.90;29.60;101804.00;;;;5032341;28;20190;-69
2023/09/02 10:51:42;;;;;;;4.45;2.13;;;25.40;99.90;30.90;101817.00;;;;5048811;28;20664;-69
2023/09/02 10:54:11;;;;;;;0.68;0.68;;;26.40;99.90;31.70;101849.00;;;;5030190;28;20190;-69
2023/09/02 10:56:42;;;;;;;0.82;0.82;;;27.40;99.90;32.60;101881.00;;;;5032282;28;20596;-69
2023/09/02 10:59:08;;;;;;;0.25;0.25;;;28.00;99.90;33.80;101897.00;;;;5037238;28;20217;-67
2023/09/02 11:02:03;;;;;;;1.70;1.67;;;28.70;99.90;32.00;101903.00;;;;5049553;28;20202;-67
2023/09/02 11:04:44;;;;;;;1.30;1.20;;;28.40;99.90;31.40;101876.00;;;;5057193;28;20179;-67
2023/09/02 11:07:19;;;;;;;4.22;3.80;;;27.60;99.90;31.20;101878.00;;;;5041621;28;20210;-67
2023/09/02 11:09:56;;;;;;;12.02;7.28;;;27.40;99.90;30.00;101869.00;;;;5048359;28;20272;-69
2023/09/02 11:12:28;;;;;;;2.65;2.45;;;27.00;99.90;29.90;101837.00;;;;5031784;28;20268;-69
2023/09/02 11:15:09;;;;;;;1.58;1.50;;;26.30;99.90;31.00;101872.00;;;;5048085;28;20183;-69
2023/09/02 11:17:56;;;;;;;1.70;1.70;;;26.50;99.90;31.40;101861.00;;;;5049395;28;20261;-69
2023/09/02 11:20:52;;;;;;;8.63;7.80;;;27.00;99.90;31.70;101911.00;;;;5048199;28;20190;-69
2023/09/02 11:23:24;;;;;;;2.00;1.90;;;27.70;99.90;30.80;101888.00;;;;5049388;28;20328;-69
2023/09/02 11:26:05;;;;;;;5.57;4.68;;;27.40;99.90;29.70;101850.00;;;;5049573;28;20205;-69
2023/09/02 11:28:36;;;;;;;4.68;4.32;;;26.50;99.90;30.30;101876.00;;;;5058401;28;20182;-69
2023/09/02 11:31:16;;;;;;;0.43;0.43;;;26.70;99.90;31.10;101893.00;;;;5044849;28;20648;-70
2023/09/02 11:33:48;;;;;;;0.32;0.32;;;26.80;99.90;31.00;101908.00;;;;5050398;28;20285;-69
2023/09/02 11:36:20;;;;;;;2.85;2.45;;;26.90;99.90;31.70;101924.00;;;;5047673;28;20198;-69
2023/09/02 11:38:49;;;;;;;0.47;0.47;;;27.10;99.90;31.90;101945.00;;;;5031258;28;20187;-69
2023/09/02 11:41:27;;;;;;;0.20;0.20;;;27.30;99.90;32.50;101958.00;;;;5048087;28;20220;-69
2023/09/02 11:44:12;;;;;;;0.95;0.95;;;27.50;99.90;33.00;101971.00;;;;5037574;28;20545;-67
2023/09/02 11:46:42;;;;;;;0.90;0.90;;;28.00;99.90;32.10;101961.00;;;;5047553;28;20582;-67
2023/09/02 11:49:41;;;;;;;1.95;1.75;;;27.70;99.90;31.10;101950.00;;;;5018650;28;20191;-69
2023/09/02 11:52:10;;;;;;;4.80;4.38;;;27.40;99.90;29.50;101898.00;;;;5034420;28;20209;-68
2023/09/02 11:54:46;;;;;;;0.50;0.50;;;26.80;99.90;30.70;101873.00;;;;5034106;28;20452;-68
2023/09/02 11:57:18;;;;;;;12.30;7.53;;;26.80;99.90;30.30;101884.00;;;;5034755;28;20187;-69
2023/09/02 11:59:49;;;;;;;0.90;0.90;;;27.00;99.90;31.30;101902.00;;;;5014261;28;20191;-68
2023/09/02 12:02:19;;;;;;;0.22;0.22;;;27.30;99.90;32.70;101933.00;;;;5048226;28;20199;-69
2023/09/02 12:04:55;;;;;;;1.27;1.27;;;28.00;99.90;32.00;101940.00;;;;5035065;28;20528;-68
2023/09/02 12:07:25;;;;;;;0.85;0.70;;;27.80;99.90;32.90;101965.00;;;;5034059;28;20543;-67
2023/09/02 12:10:10;;;;;;;2.28;2.08;;;28.20;99.90;32.80;101988.00;;;;5017549;28;20244;-66
2023/09/02 12:12:48;;;;;;;1.75;1.55;;;28.60;99.90;32.50;101992.00;;;;5034689;28;20219;-68
2023/09/02 12:15:20;;;;;;;11.50;7.50;;;28.20;99.90;30.20;101937.00;;;;5017018;28;20216;-68
2023/09/02 12:17:57;;;;;;;0.73;0.73;;;27.80;99.90;31.10;101925.00;;;;5033737;28;20191;-68
2023/09/02 12:20:32;;;;;;;1.63;1.52;;;27.50;99.90;30.90;101944.00;;;;5017431;28;20776;-68
2023/09/02 12:23:07;;;;;;;2.13;1.60;;;27.40;99.90;31.50;101951.00;;;;5034265;28;20205;-68
2023/09/02 12:25:35;;;;;;;2.58;1.88;;;27.40;99.90;29.40;101929.00;;;;5033363;28;20178;-69
2023/09/02 12:28:15;;;;;;;4.15;3.75;;;26.90;99.90;28.90;101892.00;;;;5016972;28;20182;-68
2023/09/02 12:30:49;;;;;;;0.52;0.52;;;26.30;99.90;30.00;101908.00;;;;5033540;28;20187;-69
2023/09/02 12:33:18;;;;;;;1.92;1.33;;;26.40;99.90;31.30;101940.00;;;;5017285;28;20228;-68
2023/09/02 12:35:58;;;;;;;4.50;2.22;;;27.00;99.90;29.90;101887.00;;;;5033913;28;20194;-68
2023/09/02 12:38:27;;;;;;;2.17;1.98;;;26.70;99.90;29.90;101887.00;;;;5013920;28;20180;-69
2023/09/02 12:41:01;;;;;;;11.43;9.23;;;26.70;99.90;28.90;101870.00;;;;5060597;28;20269;-69
2023/09/02 12:43:35;;;;;;;1.45;1.45;;;26.50;99.90;29.00;101874.00;;;;5019890;28;20183;-69
2023/09/02 12:46:07;;;;;;;0.30;0.30;;;26.20;99.90;31.10;101902.00;;;;5046075;28;20198;-69
2023/09/02 12:48:45;;;;;;;0.10;0.10;;;26.70;99.90;31.40;101929.00;;;;5023897;28;20183;-69
2023/09/02 12:51:27;;;;;;;1.08;1.08;;;27.10;99.90;30.70;101942.00;;;;5034276;28;20195;-69
2023/09/02 12:54:08;;;;;;;3.47;2.53;;;27.00;99.90;30.10;101949.00;;;;5033440;28;20183;-69
2023/09/02 12:56:40;;;;;;;1.38;1.33;;;27.00;99.90;30.00;101933.00;;;;5031977;28;20247;-69
2023/09/02 12:59:13;;;;;;;3.35;3.05;;;26.60;99.90;30.30;101920.00;;;;5014412;28;20277;-69
2023/09/02 13:01:45;;;;;;;1.90;1.80;;;26.60;99.90;30.70;101908.00;;;;5033319;28;20563;-69
2023/09/02 13:04:16;;;;;;;2.42;1.77;;;26.70;99.90;29.30;101910.00;;;;5018887;28;20179;-69
2023/09/02 13:06:47;;;;;;;2.13;1.98;;;26.30;99.90;29.80;101923.00;;;;5016735;28;20187;-69
2023/09/02 13:09:22;;;;;;;3.03;2.35;;;26.40;99.90;28.60;101903.00;;;;5033341;28;20183;-69
2023/09/02 13:11:48;;;;;;;2.05;1.95;;;26.10;99.90;28.50;101895.00;;;;5032606;28;20206;-69
2023/09/02 13:14:31;;;;;;;0.75;0.75;;;25.80;99.90;30.20;101885.00;;;;5032434;28;20584;-69
2023/09/02 13:17:08;;;;;;;2.85;1.63;;;26.20;99.90;29.60;101897.00;;;;5034051;28;20599;-69
2023/09/02 13:19:35;;;;;;;2.88;2.60;;;26.30;99.90;29.50;101903.00;;;;5018778;28;20198;-69
2023/09/02 13:22:14;;;;;;;0.98;0.88;;;26.10;99.90;29.50;101906.00;;;;5012690;28;20248;-69
2023/09/02 13:24:47;;;;;;;1.00;1.00;;;26.30;99.90;29.40;101903.00;;;;5032413;28;20187;-69
2023/09/02 13:27:24;;;;;;;4.78;3.35;;;26.20;99.90;28.60;101886.00;;;;5032887;28;20269;-69
2023/09/02 13:29:56;;;;;;;3.25;1.90;;;26.00;99.90;28.20;101906.00;;;;5027816;28;20240;-69
2023/09/02 13:32:29;;;;;;;0.25;0.25;;;25.60;99.90;29.10;101921.00;;;;5015609;28;20230;-69
2023/09/02 13:35:16;;;;;;;1.08;1.05;;;25.60;99.90;30.20;101929.00;;;;5015716;28;20183;-69
2023/09/02 13:37:48;;;;;;;1.50;1.40;;;26.10;99.90;30.20;101939.00;;;;5032242;28;20201;-69
2023/09/02 13:40:19;;;;;;;0.82;0.82;;;26.60;99.90;29.60;101917.00;;;;5032102;28;20286;-69
2023/09/02 13:42:58;;;;;;;1.88;1.58;;;26.30;99.90;29.60;101929.00;;;;5033754;28;20187;-69
2023/09/02 13:45:34;;;;;;;1.27;1.25;;;26.50;99.90;29.50;101940.00;;;;5031667;28;20193;-69
2023/09/02 13:48:08;;;;;;;1.73;1.25;;;26.40;99.90;28.50;101919.00;;;;5033014;28;20667;-69
2023/09/02 13:50:37;;;;;;;7.07;2.55;;;26.00;99.90;28.40;101898.00;;;;5015377;28;20201;-69
2023/09/02 13:53:09;;;;;;;4.40;3.72;;;25.70;99.90;28.60;101934.00;;;;5015702;28;20256;-69
2023/09/02 13:55:46;;;;;;;5.07;4.57;;;25.80;99.90;29.60;101918.00;;;;5035010;28;20196;-69
2023/09/02 13:58:21;;;;;;;1.10;1.00;;;26.00;99.90;29.60;101926.00;;;;5063014;28;20187;-69
2023/09/02 14:00:51;;;;;;;2.35;2.25;;;26.20;99.90;29.40;101928.00;;;;5015597;28;20190;-69
2023/09/02 14:03:33;;;;;;;3.50;3.10;;;26.00;99.90;27.80;101914.00;;;;5031392;28;20722;-69
2023/09/02 14:06:06;;;;;;;5.43;3.03;;;25.60;99.90;27.60;101915.00;;;;5005941;28;20199;-69
2023/09/02 14:08:41;;;;;;;1.08;1.08;;;25.10;99.90;28.20;101913.00;;;;5042135;28;20213;-67
2023/09/02 14:11:13;;;;;;;8.98;6.32;;;25.00;99.90;27.30;101911.00;;;;5031844;28;20179;-67
2023/09/02 14:13:41;;;;;;;2.95;2.75;;;25.00;99.90;27.40;101915.00;;;;5031837;28;20186;-67
2023/09/02 14:16:53;;;;;;;7.53;1.90;;;24.80;99.90;27.80;101917.00;;;;5031361;28;20260;-67
2023/09/02 14:19:32;;;;;;;1.35;1.25;;;25.00;99.90;27.80;101913.00;;;;5032461;28;20199;-67
2023/09/02 14:22:00;;;;;;;3.03;2.65;;;25.00;99.90;27.70;101910.00;;;;5033111;28;20248;-67
2023/09/02 14:24:34;;;;;;;1.63;1.52;;;25.00;99.90;28.20;101887.00;;;;5015042;28;20226;-67
2023/09/02 14:27:14;;;;;;;0.75;0.75;;;25.10;99.90;28.20;101891.00;;;;5031831;28;20179;-67
2023/09/02 14:29:45;;;;;;;3.97;3.58;;;25.10;99.90;25.70;101882.00;;;;5031360;28;20262;-67
2023/09/02 14:32:14;;;;;;;2.00;1.90;;;24.50;99.90;27.20;101869.00;;;;5031401;28;20703;-67
2023/09/02 14:34:46;;;;;;;3.42;3.08;;;24.40;99.90;26.90;101902.00;;;;5031691;28;20214;-67
2023/09/02 14:37:12;;;;;;;1.08;1.08;;;24.50;99.90;27.30;101910.00;;;;5031695;28;20233;-67
2023/09/02 14:39:47;;;;;;;0.63;0.55;;;24.40;99.90;28.60;101897.00;;;;5030805;28;20645;-67
2023/09/02 14:42:15;;;;;;;2.38;1.98;;;24.60;99.90;27.40;101901.00;;;;5031540;28;20182;-67
2023/09/02 14:44:47;;;;;;;0.57;0.57;;;24.60;99.90;27.50;101878.00;;;;5018481;28;20175;-67
2023/09/02 14:47:15;;;;;;;0.17;0.17;;;24.60;99.90;28.70;101918.00;;;;5031659;28;20232;-67
2023/09/02 14:49:55;;;;;;;4.55;2.83;;;24.90;99.90;27.60;101901.00;;;;5031470;28;20179;-67
2023/09/02 14:52:30;;;;;;;3.30;3.10;;;24.80;99.90;27.50;101901.00;;;;5014993;28;20202;-67
2023/09/02 14:55:03;;;;;;;0.32;0.32;;;24.70;99.90;28.40;101918.00;;;;5031655;28;20261;-70
2023/09/02 14:57:36;;;;;;;0.40;0.40;;;24.90;99.90;29.70;101927.00;;;;5015067;28;20329;-68
2023/09/02 15:00:04;;;;;;;2.15;1.95;;;25.50;99.90;28.60;101904.00;;;;5031331;28;20222;-67
2023/09/02 15:02:43;;;;;;;0.73;0.73;;;25.40;99.90;28.70;101912.00;;;;5014672;28;20190;-67
2023/09/02 15:05:15;;;;;;;1.35;1.23;;;25.30;99.90;29.90;101912.00;;;;5015246;28;20189;-70
2023/09/02 15:07:45;;;;;;;0.52;0.52;;;25.60;99.90;29.40;101912.00;;;;5009282;28;20178;-67
2023/09/02 15:10:38;;;;;;;0.17;0.17;;;25.60;99.90;30.20;101935.00;;;;5031687;28;20198;-67
2023/09/02 15:13:10;;;;;;;0.25;0.22;;;25.90;99.90;28.40;101886.00;;;;5029277;28;20290;-67
2023/09/02 15:15:42;;;;;;;3.63;3.35;;;25.50;99.90;26.20;101886.00;;;;5028260;28;20184;-68
2023/09/02 15:18:23;;;;;;;1.00;1.00;;;24.70;99.90;26.90;101905.00;;;;5042812;28;20179;-67
2023/09/02 15:20:52;;;;;;;0.55;0.55;;;24.40;99.90;27.90;101907.00;;;;5034591;28;20230;-68
2023/09/02 15:23:22;;;;;;;2.45;2.22;;;24.40;99.90;27.60;101909.00;;;;5035234;28;20190;-67
2023/09/02 15:26:02;;;;;;;3.72;3.15;;;24.50;99.90;26.90;101903.00;;;;5016871;28;20279;-67
2023/09/02 15:28:31;;;;;;;3.45;3.15;;;24.30;99.90;27.10;101905.00;;;;5015247;28;20207;-67
2023/09/02 15:31:12;;;;;;;0.20;0.20;;;24.30;99.90;27.50;101918.00;;;;5045537;28;20183;-67
2023/09/02 15:33:47;;;;;;;5.05;2.42;;;24.20;99.90;27.00;101913.00;;;;5018471;28;20202;-67
2023/09/02 15:36:20;;;;;;;1.80;1.70;;;24.30;99.90;26.80;101910.00;;;;5035854;28;20239;-67
2023/09/02 15:38:52;;;;;;;1.13;1.13;;;24.10;99.90;27.40;101925.00;;;;5018097;28;20186;-67
2023/09/02 15:41:27;;;;;;;0.68;0.68;;;24.20;99.90;27.50;101916.00;;;;5051304;28;20171;-67
2023/09/02 15:43:58;;;;;;;4.47;1.83;;;24.40;99.90;26.90;101909.00;;;;5044539;28;20175;-67
2023/09/02 15:46:29;;;;;;;4.07;2.78;;;24.20;99.90;26.50;101912.00;;;;5035629;28;20223;-67
2023/09/02 15:49:10;;;;;;;0.70;0.70;;;24.10;99.90;27.70;101919.00;;;;5017915;28;20193;-67
2023/09/02 15:51:44;;;;;;;3.83;3.33;;;24.10;99.90;26.50;101913.00;;;;5033949;28;20575;-67
2023/09/02 15:54:19;;;;;;;0.82;0.82;;;24.00;99.90;27.20;101906.00;;;;5025414;28;21152;-67
2023/09/02 15:56:48;;;;;;;1.08;1.00;;;24.10;99.90;28.20;101944.00;;;;5033975;28;20544;-67
2023/09/02 15:59:14;;;;;;;1.00;0.88;;;24.30;99.90;28.00;101919.00;;;;5017687;28;20270;-67
2023/09/02 16:01:46;;;;;;;1.35;0.40;;;24.50;99.90;27.70;101931.00;;;;5034206;28;20198;-67
2023/09/02 16:04:12;;;;;;;3.20;2.55;;;24.40;99.90;27.00;101925.00;;;;5034105;28;20194;-67
2023/09/02 16:06:46;;;;;;;1.80;1.40;;;24.30;99.90;27.50;101937.00;;;;5033781;28;20271;-67
2023/09/02 16:09:12;;;;;;;4.90;4.45;;;24.30;99.90;26.60;101934.00;;;;5033895;28;20233;-67
2023/09/02 16:11:48;;;;;;;1.40;1.30;;;24.10;99.90;26.10;101916.00;;;;5034118;28;20202;-67
2023/09/02 16:14:19;;;;;;;0.47;0.47;;;23.80;99.90;26.70;101921.00;;;;5028621;28;20565;-67
2023/09/02 16:16:51;;;;;;;0.68;0.68;;;23.70;99.90;26.80;101933.00;;;;5017360;28;20191;-67
2023/09/02 16:19:20;;;;;;;0.88;0.88;;;23.70;99.90;26.90;101933.00;;;;5033833;28;20679;-68
2023/09/02 16:21:46;;;;;;;0.77;0.77;;;23.90;99.90;27.00;101931.00;;;;5017597;28;20282;-67
2023/09/02 16:24:20;;;;;;;0.28;0.28;;;24.00;99.90;27.00;101925.00;;;;5019658;28;20278;-68
2023/09/02 16:26:54;;;;;;;0.85;0.70;;;24.00;99.90;26.50;101927.00;;;;5046568;28;20659;-68
2023/09/02 16:29:28;;;;;;;2.05;1.95;;;23.90;99.90;27.10;101937.00;;;;5033495;28;20651;-67
2023/09/02 16:32:05;;;;;;;0.52;0.52;;;23.90;99.90;27.20;101938.00;;;;5033272;28;20218;-68
2023/09/02 16:34:51;;;;;;;0.30;0.30;;;24.00;99.90;26.70;101909.00;;;;5033703;28;20182;-68
2023/09/02 16:37:31;;;;;;;4.63;2.92;;;23.90;99.90;26.40;101926.00;;;;5029468;28;20202;-67
2023/09/02 16:40:03;;;;;;;0.77;0.77;;;23.70;99.90;26.80;101932.00;;;;5064932;28;20265;-67
2023/09/02 16:42:45;;;;;;;0.20;0.20;;;23.80;99.90;26.30;101932.00;;;;5032850;28;20768;-67
2023/09/02 16:45:29;;;;;;;2.30;0.88;;;23.60;99.90;27.10;101938.00;;;;5030410;28;20190;-67
2023/09/02 16:47:56;;;;;;;0.90;0.82;;;23.70;99.90;27.30;101936.00;;;;5033020;28;20550;-67
2023/09/02 16:50:45;;;;;;;0.32;0.32;;;23.80;99.90;26.30;101930.00;;;;5033235;28;20183;-67
2023/09/02 16:53:44;;;;;;;1.67;1.58;;;23.70;99.90;27.00;101939.00;;;;5032808;28;20203;-67
2023/09/02 16:56:21;;;;;;;2.50;1.02;;;23.80;99.90;27.60;101950.00;;;;5032486;28;20195;-67
2023/09/02 16:59:00;;;;;;;23.67;5.03;;;23.90;99.90;25.90;101933.00;;;;5033121;28;20174;-67
2023/09/02 17:01:26;;;;;;;7.05;4.18;;;23.60;99.90;25.60;101931.00;;;;5028836;28;20252;-67
2023/09/02 17:04:01;;;;;;;4.68;3.53;;;23.30;99.90;25.60;101929.00;;;;5033004;28;20191;-67
2023/09/02 17:06:34;;;;;;;3.22;3.03;;;23.20;99.90;25.90;101900.00;;;;5032962;28;20612;-67
2023/09/02 17:09:06;;;;;;;2.10;1.95;;;23.00;99.90;25.80;101938.00;;;;5032916;28;20190;-67
2023/09/02 17:11:43;;;;;;;2.78;2.63;;;23.00;99.90;26.10;101947.00;;;;5032980;28;20183;-67
2023/09/02 17:14:15;;;;;;;7.82;5.35;;;23.10;99.90;24.80;101930.00;;;;5016894;28;20190;-67
2023/09/02 17:16:52;;;;;;;3.28;2.92;;;22.90;99.90;25.70;101913.00;;;;5016648;28;20191;-67
2023/09/02 17:19:19;;;;;;;2.80;2.30;;;22.80;99.90;25.30;101934.00;;;;5032617;28;20174;-67
2023/09/02 17:21:57;;;;;;;3.13;2.83;;;22.70;99.90;25.10;101927.00;;;;5032739;28;20187;-67
2023/09/02 17:24:28;;;;;;;3.75;2.53;;;22.60;99.90;24.90;101934.00;;;;5032532;28;20205;-68
2023/09/02 17:27:01;;;;;;;2.47;1.58;;;22.50;99.90;25.60;101943.00;;;;5032352;28;20182;-68
2023/09/02 17:29:40;;;;;;;1.95;0.70;;;22.60;99.90;25.00;101944.00;;;;5010643;28;20190;-67
2023/09/02 17:32:09;;;;;;;3.03;2.80;;;22.50;99.90;25.50;101938.00;;;;5015624;28;20559;-67
2023/09/02 17:34:43;;;;;;;2.50;2.30;;;22.60;99.90;25.30;101932.00;;;;5012840;28;20192;-67
2023/09/02 17:37:14;;;;;;;2.25;2.05;;;22.50;99.90;25.10;101939.00;;;;5042178;28;20272;-67
2023/09/02 17:39:46;;;;;;;4.03;3.30;;;22.40;99.90;24.60;101946.00;;;;5032656;28;20175;-67
2023/09/02 17:42:20;;;;;;;2.13;1.95;;;22.30;99.90;24.20;101944.00;;;;5031622;28;20557;-68
2023/09/02 17:44:49;;;;;;;1.65;1.55;;;22.10;99.90;24.80;101957.00;;;;5015931;28;20241;-68
2023/09/02 17:47:15;;;;;;;4.63;3.00;;;22.10;99.90;25.10;101981.00;;;;5021555;28;20226;-68
2023/09/02 17:49:46;;;;;;;0.52;0.47;;;22.20;99.90;24.90;101958.00;;;;5011571;28;20258;-68
2023/09/02 17:52:22;;;;;;;1.50;1.50;;;22.20;99.90;25.30;101983.00;;;;5033148;28;20199;-67
2023/09/02 17:54:53;;;;;;;0.43;0.43;;;22.20;99.90;25.20;101977.00;;;;5032138;28;20194;-68
2023/09/02 17:57:19;;;;;;;2.90;2.75;;;22.10;99.90;25.00;101991.00;;;;5032129;28;20688;-67
2023/09/02 17:59:54;;;;;;;3.03;2.00;;;22.20;99.90;24.80;101990.00;;;;5015494;28;20265;-67
2023/09/02 18:02:26;;;;;;;1.50;1.40;;;22.00;99.90;25.20;102004.00;;;;5032183;28;20251;-67
2023/09/02 18:05:00;;;;;;;0.20;0.20;;;22.20;99.90;24.50;101990.00;;;;5032010;28;20622;-67
2023/09/02 18:07:32;;;;;;;1.05;1.05;;;22.00;99.90;25.20;101992.00;;;;5032091;28;20273;-67
2023/09/02 18:09:58;;;;;;;0.60;0.60;;;22.00;99.90;25.50;102005.00;;;;5031833;28;20205;-67
2023/09/02 18:12:30;;;;;;;1.65;1.40;;;22.00;99.90;24.80;102005.00;;;;5039156;28;20305;-67
2023/09/02 18:14:56;;;;;;;0.40;0.40;;;22.00;99.90;25.00;102012.00;;;;5008838;28;20625;-67
2023/09/02 18:17:22;;;;;;;1.90;1.23;;;21.90;99.90;24.50;102008.00;;;;5031985;28;20189;-68
2023/09/02 18:19:54;;;;;;;0.82;0.82;;;21.80;99.90;25.00;102019.00;;;;5031596;28;20175;-67
2023/09/02 18:22:20;;;;;;;1.17;0.90;;;21.90;99.90;24.40;102018.00;;;;5015495;28;20190;-67
2023/09/02 18:24:54;;;;;;;2.67;2.47;;;21.70;99.90;24.20;102023.00;;;;5031665;28;20218;-67
2023/09/02 18:27:32;;;;;;;1.05;1.05;;;21.60;99.90;24.50;102022.00;;;;5022145;28;20180;-67
2023/09/02 18:30:04;;;;;;;3.60;1.92;;;21.50;99.90;24.50;101999.00;;;;5014021;28;20196;-67
2023/09/02 18:32:33;;;;;;;0.95;0.95;;;21.60;99.90;24.80;102032.00;;;;5018921;28;20747;-67